Time;durP1;ratioP1;P1;durP2;ratioP2;P2;SDS_P1;SDS_P2;PMS_P1;PMS_P2;Temp;Humidity;BMP_temperature;BMP_pressure;BME280_temperature;BME280_humidity;BME280_pressure;Samples;Min_cycle;Max_cycle;Signal;HPM_P1;HPM_P2
2023/05/27 05:02:33;;;;;;;19.80;4.43;;;14.90;65.90;;;;;;6185447;23;20032;-65
2023/05/27 05:05:03;;;;;;;17.73;4.07;;;15.00;66.40;;;;;;6187027;23;20020;-65
2023/05/27 05:07:29;;;;;;;23.35;4.72;;;15.10;67.00;;;;;;6186296;23;20032;-65
2023/05/27 05:09:55;;;;;;;22.80;4.22;;;15.10;67.40;;;;;;6187383;23;20353;-66
2023/05/27 05:12:21;;;;;;;17.83;4.38;;;15.20;67.40;;;;;;6185698;23;20047;-64
2023/05/27 05:14:47;;;;;;;27.02;5.28;;;15.30;67.60;;;;;;6186186;23;20021;-64
2023/05/27 05:17:13;;;;;;;15.68;3.45;;;15.30;68.00;;;;;;6186975;23;20096;-65
2023/05/27 05:19:38;;;;;;;24.25;4.45;;;15.40;66.60;;;;;;6187705;23;20017;-65
2023/05/27 05:22:04;;;;;;;16.25;3.33;;;15.40;66.80;;;;;;6189139;23;20059;-66
2023/05/27 05:24:31;;;;;;;32.83;4.85;;;15.50;66.30;;;;;;6188000;23;20017;-66
2023/05/27 05:26:56;;;;;;;28.23;5.32;;;15.60;66.70;;;;;;6188806;23;20422;-66
2023/05/27 05:29:22;;;;;;;21.90;4.57;;;15.70;67.10;;;;;;6189181;23;20021;-67
2023/05/27 05:31:48;;;;;;;24.25;5.97;;;15.70;67.10;;;;;;6187714;23;20017;-67
2023/05/27 05:34:14;;;;;;;20.42;4.95;;;15.70;67.10;;;;;;6187754;23;20017;-66
2023/05/27 05:36:40;;;;;;;19.00;5.18;;;15.70;67.20;;;;;;6189142;23;20052;-66
2023/05/27 05:39:06;;;;;;;18.48;4.68;;;15.70;67.20;;;;;;6188872;23;20537;-66
2023/05/27 05:41:31;;;;;;;17.70;4.05;;;15.80;67.30;;;;;;6188962;23;20028;-66
2023/05/27 05:43:57;;;;;;;15.88;4.53;;;15.80;67.30;;;;;;6188216;23;20114;-66
2023/05/27 05:46:23;;;;;;;17.38;4.55;;;15.80;67.30;;;;;;6188850;23;20017;-70
2023/05/27 05:48:52;;;;;;;25.73;5.35;;;15.80;67.40;;;;;;6187612;23;20036;-65
2023/05/27 05:51:18;;;;;;;23.00;4.95;;;15.80;67.60;;;;;;6189052;23;20020;-65
2023/05/27 05:53:43;;;;;;;33.83;4.90;;;15.90;66.90;;;;;;6189073;23;20032;-66
2023/05/27 05:56:09;;;;;;;26.55;6.20;;;15.90;67.40;;;;;;6188366;23;20028;-65
2023/05/27 05:58:35;;;;;;;39.50;4.85;;;16.00;67.70;;;;;;6188809;23;20028;-65
2023/05/27 06:01:01;;;;;;;27.25;4.57;;;16.00;67.90;;;;;;6189329;23;20017;-65
2023/05/27 06:03:27;;;;;;;28.25;5.43;;;16.00;67.50;;;;;;6187727;23;20056;-64
2023/05/27 06:05:53;;;;;;;29.23;5.25;;;16.00;66.30;;;;;;6187533;23;20032;-64
2023/05/27 06:08:18;;;;;;;31.70;6.28;;;16.00;65.80;;;;;;6189189;23;20013;-64
2023/05/27 06:10:45;;;;;;;27.95;5.22;;;15.90;66.10;;;;;;6188640;23;20314;-64
2023/05/27 06:13:11;;;;;;;24.77;5.97;;;15.80;66.20;;;;;;6189015;23;20022;-65
2023/05/27 06:15:37;;;;;;;25.52;5.43;;;15.80;66.40;;;;;;6188524;23;20107;-65
2023/05/27 06:18:04;;;;;;;33.85;5.82;;;15.90;66.70;;;;;;6187767;23;20021;-65
2023/05/27 06:20:30;;;;;;;27.75;4.93;;;15.90;66.90;;;;;;6188835;23;20017;-65
2023/05/27 06:22:55;;;;;;;22.35;5.45;;;15.90;67.00;;;;;;6189007;23;20028;-65
2023/05/27 06:25:21;;;;;;;24.20;5.03;;;15.90;67.00;;;;;;6188796;23;20024;-65
2023/05/27 06:27:47;;;;;;;21.92;4.70;;;15.90;67.10;;;;;;6189621;23;20068;-65
2023/05/27 06:30:13;;;;;;;23.58;4.53;;;15.90;67.10;;;;;;6189303;23;20088;-65
2023/05/27 06:32:39;;;;;;;31.48;5.05;;;15.90;67.20;;;;;;6188553;23;20418;-65
2023/05/27 06:35:05;;;;;;;22.60;5.07;;;15.90;67.30;;;;;;6188789;23;20021;-65
2023/05/27 06:37:31;;;;;;;19.48;4.80;;;15.90;67.30;;;;;;6188820;23;20017;-65
2023/05/27 06:39:57;;;;;;;23.17;4.93;;;16.00;67.30;;;;;;6188863;23;20314;-65
2023/05/27 06:42:22;;;;;;;20.00;4.45;;;15.90;67.20;;;;;;6189639;23;20088;-67
2023/05/27 06:44:48;;;;;;;19.48;4.53;;;16.00;67.20;;;;;;6185788;23;20023;-67
2023/05/27 06:47:14;;;;;;;28.48;5.95;;;16.00;67.00;;;;;;6188864;23;20027;-65
2023/05/27 06:49:40;;;;;;;33.40;5.13;;;16.00;66.70;;;;;;6188381;23;20028;-65
2023/05/27 06:52:06;;;;;;;28.90;6.15;;;16.00;66.30;;;;;;6188678;23;20021;-65
2023/05/27 06:54:32;;;;;;;23.25;5.60;;;16.00;65.50;;;;;;6187536;23;20021;-65
2023/05/27 06:56:58;;;;;;;25.27;5.25;;;16.00;65.00;;;;;;6189117;23;20016;-64
2023/05/27 06:59:24;;;;;;;14.48;4.18;;;15.90;64.50;;;;;;6188784;23;20294;-64
2023/05/27 07:01:49;;;;;;;16.20;4.72;;;15.90;64.70;;;;;;6189331;23;20305;-64
2023/05/27 07:04:16;;;;;;;22.17;5.00;;;15.80;64.70;;;;;;6187516;23;20414;-64
2023/05/27 07:06:43;;;;;;;27.15;5.78;;;15.80;65.20;;;;;;6188258;23;20410;-64
2023/05/27 07:09:09;;;;;;;34.88;6.15;;;15.80;65.80;;;;;;6189196;23;20082;-69
2023/05/27 07:11:35;;;;;;;28.92;5.82;;;15.80;65.90;;;;;;6188622;23;20077;-67
2023/05/27 07:14:01;;;;;;;18.60;4.85;;;15.90;65.70;;;;;;6187732;23;20021;-65
2023/05/27 07:16:27;;;;;;;23.25;4.55;;;15.90;65.70;;;;;;6187400;23;20361;-65
2023/05/27 07:18:56;;;;;;;26.25;5.68;;;15.90;65.90;;;;;;6188120;23;20021;-65
2023/05/27 07:21:22;;;;;;;24.75;5.07;;;16.00;66.10;;;;;;6188443;23;20024;-66
2023/05/27 07:23:47;;;;;;;24.80;5.85;;;16.00;66.30;;;;;;6188977;23;20025;-65
2023/05/27 07:26:13;;;;;;;23.88;5.43;;;16.00;66.30;;;;;;6189246;23;20095;-64
2023/05/27 07:28:39;;;;;;;21.08;4.60;;;16.00;66.20;;;;;;6188770;23;20021;-64
2023/05/27 07:31:05;;;;;;;19.40;4.78;;;16.10;66.20;;;;;;6188527;23;20017;-64
2023/05/27 07:33:30;;;;;;;17.90;5.15;;;16.10;66.40;;;;;;6188396;23;20072;-64
2023/05/27 07:35:56;;;;;;;23.25;5.38;;;16.10;66.50;;;;;;6186590;23;20056;-65
2023/05/27 07:38:22;;;;;;;28.77;5.18;;;16.10;66.50;;;;;;6187697;23;20428;-64
2023/05/27 07:40:49;;;;;;;20.58;4.93;;;16.10;66.40;;;;;;6187560;23;20029;-64
2023/05/27 07:43:15;;;;;;;25.58;5.55;;;16.10;66.40;;;;;;6188881;23;20305;-64
2023/05/27 07:45:40;;;;;;;25.08;5.43;;;16.10;66.40;;;;;;6188933;23;20048;-64
2023/05/27 07:48:06;;;;;;;20.90;4.50;;;16.20;66.60;;;;;;6188012;23;20104;-64
2023/05/27 07:50:32;;;;;;;19.15;5.00;;;16.20;66.70;;;;;;6188007;23;20021;-64
2023/05/27 07:52:58;;;;;;;19.40;4.65;;;16.20;66.80;;;;;;6188235;23;20055;-64
2023/05/27 07:55:23;;;;;;;12.75;4.10;;;16.20;66.90;;;;;;6186700;23;20013;-64
2023/05/27 07:57:49;;;;;;;22.00;4.13;;;16.30;66.90;;;;;;6186952;23;20021;-64
2023/05/27 08:00:15;;;;;;;19.63;4.07;;;16.30;67.00;;;;;;6188131;23;20032;-64
2023/05/27 08:02:43;;;;;;;13.65;3.47;;;16.30;67.00;;;;;;6188316;23;20067;-64
2023/05/27 08:05:09;;;;;;;12.55;3.92;;;16.30;67.00;;;;;;6189029;23;20021;-64
2023/05/27 08:07:35;;;;;;;13.88;3.67;;;16.30;67.10;;;;;;6187816;23;20084;-64
2023/05/27 08:10:01;;;;;;;14.77;3.75;;;16.30;67.10;;;;;;6161626;23;20055;-64
2023/05/27 08:12:26;;;;;;;12.15;3.78;;;16.40;67.20;;;;;;6187607;23;20016;-64
2023/05/27 08:14:52;;;;;;;14.88;3.92;;;16.40;67.20;;;;;;6187677;23;20414;-64
2023/05/27 08:17:18;;;;;;;10.57;3.85;;;16.40;67.20;;;;;;6188027;23;20021;-64
2023/05/27 08:19:44;;;;;;;10.23;3.17;;;16.40;67.20;;;;;;6187655;23;20021;-64
2023/05/27 08:22:10;;;;;;;13.77;4.25;;;16.40;67.20;;;;;;6187623;23;20021;-65
2023/05/27 08:24:35;;;;;;;10.30;3.17;;;16.40;67.30;;;;;;6187742;23;20324;-64
2023/05/27 08:27:02;;;;;;;13.05;3.58;;;16.50;67.30;;;;;;6187858;23;20036;-64
2023/05/27 08:29:30;;;;;;;11.77;3.47;;;16.50;67.40;;;;;;6188132;23;20064;-64
2023/05/27 08:31:56;;;;;;;9.02;3.25;;;16.50;67.40;;;;;;6188122;23;20424;-64
2023/05/27 08:34:22;;;;;;;13.35;3.50;;;16.50;67.40;;;;;;6187785;23;20055;-64
2023/05/27 08:36:48;;;;;;;11.55;3.70;;;16.50;67.40;;;;;;6187506;23;20024;-64
2023/05/27 08:39:14;;;;;;;12.38;3.17;;;16.50;67.40;;;;;;6187476;23;20326;-64
2023/05/27 08:41:40;;;;;;;9.23;3.13;;;16.60;67.50;;;;;;6188167;23;20028;-64
2023/05/27 08:44:06;;;;;;;10.32;3.10;;;16.60;67.50;;;;;;6162326;23;20086;-64
2023/05/27 08:46:33;;;;;;;9.57;2.42;;;16.60;67.50;;;;;;6187710;23;20059;-64
2023/05/27 08:48:59;;;;;;;7.50;2.72;;;16.60;67.50;;;;;;6187679;23;20030;-65
2023/05/27 08:51:26;;;;;;;13.32;3.20;;;16.60;67.50;;;;;;6187586;23;20056;-65
2023/05/27 08:53:52;;;;;;;6.70;2.35;;;16.60;67.50;;;;;;6187598;23;20020;-64
2023/05/27 08:56:21;;;;;;;10.05;2.67;;;16.70;67.50;;;;;;6161837;23;20058;-65
2023/05/27 08:58:47;;;;;;;11.82;3.50;;;16.70;67.60;;;;;;6187803;23;20287;-64
2023/05/27 09:01:17;;;;;;;12.20;3.28;;;16.70;67.60;;;;;;6187323;23;20032;-65
2023/05/27 09:03:43;;;;;;;11.45;3.13;;;16.60;67.50;;;;;;6161872;23;20433;-65
2023/05/27 09:06:09;;;;;;;16.20;4.18;;;16.70;67.40;;;;;;6187485;23;20095;-65
2023/05/27 09:08:35;;;;;;;17.00;4.30;;;16.70;67.10;;;;;;6187570;23;20134;-65
2023/05/27 09:11:01;;;;;;;16.77;4.13;;;16.60;66.80;;;;;;6187492;23;20126;-64
2023/05/27 09:13:30;;;;;;;12.95;3.67;;;16.60;66.60;;;;;;6187467;23;20088;-65
2023/05/27 09:16:04;;;;;;;14.55;4.47;;;16.60;66.40;;;;;;6187216;23;20056;-65
2023/05/27 09:18:35;;;;;;;12.70;3.47;;;16.60;66.10;;;;;;6161056;23;20013;-65
2023/05/27 09:21:01;;;;;;;11.82;4.25;;;16.60;66.20;;;;;;6187754;23;20345;-65
2023/05/27 09:23:27;;;;;;;10.50;3.08;;;16.70;66.30;;;;;;6187140;23;20386;-69
2023/05/27 09:25:54;;;;;;;12.85;4.00;;;16.70;65.90;;;;;;6187208;23;20053;-67
2023/05/27 09:28:30;;;;;;;10.50;4.03;;;16.70;66.00;;;;;;6187273;23;20021;-66
2023/05/27 09:31:02;;;;;;;13.27;3.50;;;16.70;65.90;;;;;;6186693;23;20021;-67
2023/05/27 09:33:32;;;;;;;17.27;4.25;;;16.70;66.50;;;;;;6187078;23;20017;-65
2023/05/27 09:35:59;;;;;;;11.60;3.95;;;16.70;65.70;;;;;;6186992;23;20052;-64
2023/05/27 09:38:28;;;;;;;15.38;4.30;;;16.70;65.60;;;;;;6186966;23;20425;-64
2023/05/27 09:40:54;;;;;;;23.92;5.03;;;16.70;65.70;;;;;;6187216;23;20024;-63
2023/05/27 09:43:26;;;;;;;37.35;6.55;;;16.80;65.90;;;;;;6187533;23;20048;-65
2023/05/27 09:46:00;;;;;;;31.45;6.53;;;16.80;66.30;;;;;;6186775;23;20064;-64
2023/05/27 09:48:29;;;;;;;38.92;7.00;;;16.80;66.50;;;;;;6160933;23;20025;-64
2023/05/27 09:50:56;;;;;;;39.28;7.03;;;16.80;66.40;;;;;;6187895;23;20429;-64
2023/05/27 09:53:23;;;;;;;43.13;7.70;;;16.90;66.60;;;;;;6187301;23;20047;-64
2023/05/27 09:55:49;;;;;;;41.55;7.25;;;16.90;66.50;;;;;;6187295;23;20092;-63
2023/05/27 09:58:16;;;;;;;40.38;7.05;;;16.90;66.40;;;;;;6187320;23;20021;-64
2023/05/27 10:00:44;;;;;;;17.42;4.28;;;17.00;66.60;;;;;;6187642;23;20017;-64
2023/05/27 10:03:11;;;;;;;19.88;4.78;;;17.00;66.00;;;;;;6186574;23;20047;-64
2023/05/27 10:05:38;;;;;;;27.58;5.32;;;17.00;65.60;;;;;;6188700;23;20041;-64
2023/05/27 10:08:05;;;;;;;21.30;4.43;;;17.00;65.40;;;;;;6189067;23;20095;-64
2023/05/27 10:10:33;;;;;;;22.40;5.18;;;17.00;65.30;;;;;;6164121;23;20027;-64
2023/05/27 10:12:59;;;;;;;49.97;7.88;;;17.00;65.90;;;;;;6188983;23;20021;-64
2023/05/27 10:15:31;;;;;;;48.05;8.25;;;17.00;65.60;;;;;;6189643;23;20083;-64
2023/05/27 10:18:06;;;;;;;37.38;6.35;;;17.00;66.00;;;;;;6188876;23;20028;-64
2023/05/27 10:20:37;;;;;;;25.38;5.60;;;17.00;66.10;;;;;;6188945;23;20052;-64
2023/05/27 10:23:15;;;;;;;37.35;7.20;;;17.00;65.90;;;;;;6189182;23;20021;-64
2023/05/27 10:25:47;;;;;;;37.03;7.68;;;17.00;65.70;;;;;;6188592;23;20366;-64
2023/05/27 10:28:45;;;;;;;26.38;7.15;;;16.90;65.80;;;;;;6188841;23;20032;-64
2023/05/27 10:31:14;;;;;;;29.38;6.03;;;16.90;65.90;;;;;;6104520;23;20028;-64
2023/05/27 10:33:45;;;;;;;28.48;5.97;;;16.90;65.90;;;;;;6188182;23;20025;-63
2023/05/27 10:36:13;;;;;;;25.45;5.60;;;16.90;65.90;;;;;;6188181;23;20056;-65
2023/05/27 10:38:42;;;;;;;23.17;5.57;;;17.00;66.00;;;;;;6188836;23;20083;-63
2023/05/27 10:41:08;;;;;;;32.88;6.18;;;17.00;65.90;;;;;;6189236;23;20028;-65
2023/05/27 10:43:35;;;;;;;23.05;5.85;;;17.00;65.70;;;;;;6189088;23;20322;-65
2023/05/27 10:46:08;;;;;;;19.10;5.97;;;17.00;65.60;;;;;;6188779;23;20024;-66
2023/05/27 10:48:34;;;;;;;24.38;6.28;;;17.00;65.50;;;;;;6189408;23;20017;-65
2023/05/27 10:51:00;;;;;;;34.72;5.95;;;17.10;65.60;;;;;;6163333;23;20377;-65
2023/05/27 10:53:27;;;;;;;28.33;6.05;;;17.10;65.70;;;;;;6184702;23;20024;-64
2023/05/27 10:55:54;;;;;;;22.85;6.65;;;17.10;65.60;;;;;;6162202;23;20028;-64
2023/05/27 10:58:20;;;;;;;24.02;5.60;;;17.10;65.60;;;;;;6188619;23;20287;-64
2023/05/27 11:00:51;;;;;;;23.33;5.53;;;17.10;65.60;;;;;;6162327;23;20099;-64
2023/05/27 11:03:26;;;;;;;21.90;5.72;;;17.10;65.70;;;;;;6188372;23;20032;-63
2023/05/27 11:06:01;;;;;;;30.90;6.50;;;17.10;65.80;;;;;;6189270;23;20025;-64
2023/05/27 11:08:28;;;;;;;25.58;6.18;;;17.10;66.10;;;;;;6188421;23;20013;-64
2023/05/27 11:11:02;;;;;;;26.73;7.28;;;17.10;66.20;;;;;;6189586;23;20349;-63
2023/05/27 11:13:31;;;;;;;;;;;17.10;66.30;;;;;;6188880;23;20021;-65
2023/05/27 11:15:57;;;;;;;33.25;6.80;;;17.10;66.20;;;;;;6188796;23;19927;-64
2023/05/27 11:18:23;;;;;;;38.05;6.78;;;17.20;66.20;;;;;;6188403;23;20021;-64
2023/05/27 11:20:48;;;;;;;34.00;7.20;;;17.10;66.10;;;;;;6188499;23;20091;-63
2023/05/27 11:23:14;;;;;;;24.17;5.97;;;17.10;66.20;;;;;;6188484;23;20075;-63
2023/05/27 11:25:44;;;;;;;36.08;6.90;;;17.10;66.30;;;;;;6188234;23;20437;-65
2023/05/27 11:28:19;;;;;;;24.20;6.25;;;17.10;66.40;;;;;;6188415;23;20365;-63
2023/05/27 11:30:44;;;;;;;29.33;6.32;;;17.10;66.50;;;;;;6188407;23;20086;-63
2023/05/27 11:33:10;;;;;;;27.77;5.82;;;17.10;66.60;;;;;;6188746;23;20096;-63
2023/05/27 11:35:36;;;;;;;23.63;5.90;;;17.10;66.70;;;;;;6188188;23;20025;-63
2023/05/27 11:38:02;;;;;;;22.35;5.30;;;17.10;66.80;;;;;;6188246;23;20108;-63
2023/05/27 11:40:38;;;;;;;21.73;4.72;;;17.10;66.80;;;;;;6188282;23;20025;-63
2023/05/27 11:43:04;;;;;;;23.20;4.57;;;17.10;66.90;;;;;;6188726;23;20291;-63
2023/05/27 11:45:37;;;;;;;20.15;5.68;;;17.10;66.90;;;;;;6188524;23;20028;-63
2023/05/27 11:48:03;;;;;;;18.83;5.40;;;17.10;66.90;;;;;;6188419;23;20311;-63
2023/05/27 11:50:28;;;;;;;18.42;4.45;;;17.10;66.90;;;;;;6187693;23;20023;-63
2023/05/27 11:52:56;;;;;;;18.15;4.97;;;17.10;67.00;;;;;;6162165;23;20053;-64
2023/05/27 11:55:22;;;;;;;22.98;4.78;;;17.10;67.00;;;;;;6188323;23;20292;-64
2023/05/27 11:57:49;;;;;;;20.33;5.15;;;17.10;67.00;;;;;;6187897;23;20060;-63
2023/05/27 12:00:15;;;;;;;19.20;4.45;;;17.10;67.10;;;;;;6188186;23;20444;-63
2023/05/27 12:02:42;;;;;;;17.70;4.10;;;17.10;67.10;;;;;;6188619;23;20021;-63
2023/05/27 12:05:09;;;;;;;13.80;4.53;;;17.10;67.10;;;;;;6188211;23;20075;-64
2023/05/27 12:07:39;;;;;;;15.57;4.72;;;17.10;67.10;;;;;;6187449;23;20024;-65
2023/05/27 12:10:08;;;;;;;13.98;4.75;;;17.10;67.00;;;;;;6187565;23;20052;-64
2023/05/27 12:12:34;;;;;;;19.10;4.78;;;17.10;66.60;;;;;;6187940;23;20446;-62
2023/05/27 12:15:01;;;;;;;16.35;4.72;;;17.10;66.60;;;;;;6188186;23;20025;-63
2023/05/27 12:17:26;;;;;;;27.33;4.80;;;17.10;66.60;;;;;;6187608;23;20092;-63
2023/05/27 12:19:52;;;;;;;15.90;3.78;;;17.20;66.70;;;;;;6161995;23;20021;-63
2023/05/27 12:22:18;;;;;;;24.00;5.10;;;17.20;66.60;;;;;;6188414;23;20453;-63
2023/05/27 12:24:44;;;;;;;17.73;4.63;;;17.20;66.60;;;;;;6162924;23;20053;-63
2023/05/27 12:27:28;;;;;;;20.20;4.63;;;17.20;66.50;;;;;;6186298;23;20310;-63
2023/05/27 12:29:58;;;;;;;23.33;6.50;;;17.20;66.40;;;;;;6161284;23;20091;-65
2023/05/27 12:32:24;;;;;;;28.83;5.43;;;17.20;66.60;;;;;;6187205;23;20096;-64
2023/05/27 12:34:50;;;;;;;17.67;5.07;;;17.20;66.80;;;;;;6187656;23;20092;-64
2023/05/27 12:37:16;;;;;;;30.77;5.20;;;17.30;66.50;;;;;;6187044;23;20032;-64
2023/05/27 12:39:42;;;;;;;25.85;4.95;;;17.30;66.60;;;;;;6187599;23;20056;-63
2023/05/27 12:42:09;;;;;;;28.55;6.20;;;17.30;66.50;;;;;;6188029;23;20310;-63
2023/05/27 12:44:35;;;;;;;29.85;6.20;;;17.30;66.60;;;;;;6187623;23;20032;-63
2023/05/27 12:47:01;;;;;;;24.17;4.70;;;17.30;66.70;;;;;;6187716;23;20023;-63
2023/05/27 12:49:28;;;;;;;21.63;5.10;;;17.30;66.80;;;;;;6187664;23;20319;-64
2023/05/27 12:51:54;;;;;;;19.52;4.78;;;17.30;66.80;;;;;;6187510;23;20017;-64
2023/05/27 12:54:20;;;;;;;23.10;5.40;;;17.30;66.90;;;;;;6187812;23;20020;-63
2023/05/27 12:56:46;;;;;;;21.08;5.00;;;17.20;66.90;;;;;;6187520;23;20075;-63
2023/05/27 12:59:12;;;;;;;20.73;5.03;;;17.30;67.00;;;;;;6187335;23;20068;-64
2023/05/27 13:01:38;;;;;;;23.20;5.00;;;17.20;67.00;;;;;;6187162;23;20430;-64
2023/05/27 13:04:04;;;;;;;17.38;5.05;;;17.20;67.00;;;;;;6187574;23;20017;-63
2023/05/27 13:06:30;;;;;;;20.25;5.63;;;17.20;67.00;;;;;;6187589;23;20048;-63
2023/05/27 13:08:57;;;;;;;11.50;3.95;;;17.20;67.00;;;;;;6188200;23;20028;-63
2023/05/27 13:11:23;;;;;;;25.90;6.30;;;17.20;67.10;;;;;;6187211;23;20326;-63
2023/05/27 13:13:50;;;;;;;15.95;4.40;;;17.20;67.10;;;;;;6187492;23;20310;-63
2023/05/27 13:16:15;;;;;;;13.48;4.93;;;17.20;67.20;;;;;;6187350;23;20057;-64
2023/05/27 13:18:41;;;;;;;13.93;4.00;;;17.20;67.20;;;;;;6187483;23;20017;-64
2023/05/27 13:21:07;;;;;;;13.30;4.60;;;17.20;67.30;;;;;;6188223;23;20017;-63
2023/05/27 13:23:33;;;;;;;11.57;4.38;;;17.20;67.30;;;;;;6187907;23;20039;-63
2023/05/27 13:25:59;;;;;;;13.02;4.15;;;17.20;67.40;;;;;;6187524;23;20080;-63
2023/05/27 13:28:25;;;;;;;15.55;4.15;;;17.20;67.40;;;;;;6187543;23;20306;-64
2023/05/27 13:30:50;;;;;;;15.27;4.35;;;17.20;67.50;;;;;;6187541;23;20389;-64
2023/05/27 13:33:16;;;;;;;11.07;3.95;;;17.20;67.50;;;;;;6187430;23;20060;-63
2023/05/27 13:35:42;;;;;;;13.27;4.32;;;17.20;67.50;;;;;;6187462;23;20056;-64
2023/05/27 13:38:12;;;;;;;10.27;3.58;;;17.20;67.50;;;;;;6187406;23;20017;-63
2023/05/27 13:40:38;;;;;;;20.38;4.35;;;17.20;67.40;;;;;;6189045;23;20063;-63
2023/05/27 13:43:03;;;;;;;15.95;4.38;;;17.30;67.60;;;;;;6189577;23;20021;-64
2023/05/27 13:45:29;;;;;;;20.80;4.78;;;17.30;67.70;;;;;;6189218;23;20021;-63
2023/05/27 13:47:55;;;;;;;17.80;5.07;;;17.40;67.80;;;;;;6189207;23;20021;-64
2023/05/27 13:50:21;;;;;;;20.60;4.75;;;17.40;67.80;;;;;;6189690;23;20017;-64
2023/05/27 13:52:47;;;;;;;15.82;4.93;;;17.40;67.80;;;;;;6189533;23;20440;-64
2023/05/27 13:55:13;;;;;;;16.92;4.20;;;17.40;68.00;;;;;;6189511;23;20063;-64
2023/05/27 13:57:39;;;;;;;13.77;4.50;;;17.50;68.00;;;;;;6189088;23;20017;-64
2023/05/27 14:00:06;;;;;;;23.48;4.72;;;17.50;68.10;;;;;;6189470;23;20025;-64
2023/05/27 14:02:32;;;;;;;16.50;4.90;;;17.40;68.10;;;;;;6189061;23;20021;-64
2023/05/27 14:04:58;;;;;;;18.55;4.47;;;17.40;68.20;;;;;;6190242;23;20017;-64
2023/05/27 14:07:23;;;;;;;32.92;5.47;;;17.40;68.20;;;;;;6189131;23;20445;-65
2023/05/27 14:09:49;;;;;;;21.70;6.15;;;17.50;68.40;;;;;;6188322;23;20013;-66
2023/05/27 14:12:15;;;;;;;26.52;6.20;;;17.50;68.40;;;;;;6188075;23;20025;-68
2023/05/27 14:14:41;;;;;;;21.02;5.75;;;17.50;68.30;;;;;;6188224;23;20021;-64
2023/05/27 14:17:08;;;;;;;23.17;5.47;;;17.50;68.50;;;;;;6189344;23;20087;-65
2023/05/27 14:19:34;;;;;;;33.97;6.20;;;17.50;68.80;;;;;;6188773;23;20368;-64
2023/05/27 14:21:59;;;;;;;23.60;5.40;;;17.50;69.00;;;;;;6189129;23;20102;-65
2023/05/27 14:24:25;;;;;;;21.75;5.95;;;17.60;69.20;;;;;;6188914;23;20028;-65
2023/05/27 14:26:51;;;;;;;31.23;6.35;;;17.60;69.00;;;;;;6188856;23;20017;-65
2023/05/27 14:29:17;;;;;;;22.98;5.85;;;17.60;69.60;;;;;;6188895;23;20031;-65
2023/05/27 14:31:43;;;;;;;27.88;6.97;;;17.60;68.70;;;;;;6188880;23;20017;-65
2023/05/27 14:34:08;;;;;;;32.78;7.20;;;17.60;68.70;;;;;;6189725;23;20064;-70
2023/05/27 14:36:34;;;;;;;32.67;6.95;;;17.60;68.90;;;;;;6188321;23;20446;-65
2023/05/27 14:39:05;;;;;;;42.05;6.97;;;17.60;69.00;;;;;;6188204;23;20021;-65
2023/05/27 14:41:31;;;;;;;20.83;5.65;;;17.60;69.00;;;;;;6188734;23;20044;-65
2023/05/27 14:43:57;;;;;;;28.33;6.90;;;17.70;69.20;;;;;;6188414;23;20403;-67
2023/05/27 14:46:23;;;;;;;25.52;5.88;;;17.70;69.30;;;;;;6188258;23;20017;-65
2023/05/27 14:48:48;;;;;;;22.17;5.35;;;17.60;69.40;;;;;;6188600;23;20018;-65
2023/05/27 14:51:14;;;;;;;27.83;6.10;;;17.70;69.80;;;;;;6188251;23;20365;-65
2023/05/27 14:53:40;;;;;;;24.67;5.32;;;17.70;70.50;;;;;;6188403;23;20016;-65
2023/05/27 14:56:06;;;;;;;18.75;5.28;;;17.70;71.30;;;;;;6188274;23;20032;-64
2023/05/27 14:58:31;;;;;;;19.92;5.45;;;17.70;71.80;;;;;;6188341;23;20075;-64
2023/05/27 15:00:57;;;;;;;15.57;5.28;;;17.70;72.00;;;;;;6188637;23;20406;-64
2023/05/27 15:03:23;;;;;;;18.75;5.28;;;17.70;72.10;;;;;;6188162;23;20422;-64
2023/05/27 15:05:48;;;;;;;19.02;6.10;;;17.70;72.50;;;;;;6187990;23;20023;-64
2023/05/27 15:08:15;;;;;;;21.25;5.40;;;17.70;73.00;;;;;;6188147;23;20017;-64
2023/05/27 15:10:44;;;;;;;12.80;4.72;;;17.80;73.20;;;;;;6187986;23;20060;-63
2023/05/27 15:13:11;;;;;;;16.48;5.25;;;17.80;73.40;;;;;;6187470;23;20047;-64
2023/05/27 15:15:39;;;;;;;15.68;5.32;;;17.80;73.60;;;;;;6188980;23;20075;-65
2023/05/27 15:18:07;;;;;;;20.75;5.32;;;17.80;73.80;;;;;;6188902;23;20091;-66
2023/05/27 15:20:33;;;;;;;19.90;6.07;;;17.90;73.80;;;;;;6188515;23;20297;-66
2023/05/27 15:22:58;;;;;;;19.30;5.88;;;17.80;73.90;;;;;;6188068;23;20005;-63
2023/05/27 15:25:24;;;;;;;22.20;6.75;;;17.80;74.00;;;;;;6188371;23;20096;-63
2023/05/27 15:27:50;;;;;;;25.48;6.93;;;17.80;74.00;;;;;;6188138;23;20028;-63
2023/05/27 15:30:16;;;;;;;29.48;6.25;;;17.90;73.90;;;;;;6187886;23;20017;-63
2023/05/27 15:32:41;;;;;;;17.85;5.78;;;17.90;73.80;;;;;;6188285;23;20305;-63
2023/05/27 15:35:08;;;;;;;20.42;6.03;;;17.90;73.60;;;;;;6187932;23;20017;-63
2023/05/27 15:37:37;;;;;;;20.40;6.30;;;17.90;73.40;;;;;;6188635;23;20017;-64
2023/05/27 15:40:06;;;;;;;22.05;5.13;;;17.90;73.30;;;;;;6187775;23;20430;-63
2023/05/27 15:42:33;;;;;;;20.35;6.25;;;17.90;73.40;;;;;;6188190;23;20021;-63
2023/05/27 15:44:58;;;;;;;19.67;6.68;;;17.90;74.00;;;;;;6188284;23;20025;-63
2023/05/27 15:47:24;;;;;;;21.73;5.75;;;17.90;73.40;;;;;;6188359;23;20017;-63
2023/05/27 15:49:50;;;;;;;33.72;7.88;;;17.90;72.60;;;;;;6188107;23;20414;-63
2023/05/27 15:52:16;;;;;;;22.50;6.20;;;18.00;72.30;;;;;;6188090;23;20017;-63
2023/05/27 15:54:42;;;;;;;26.10;7.25;;;18.00;72.20;;;;;;6188450;23;20027;-63
2023/05/27 15:57:08;;;;;;;25.10;7.00;;;18.00;72.30;;;;;;6187983;23;20016;-64
2023/05/27 15:59:38;;;;;;;35.70;6.72;;;18.00;72.40;;;;;;6188146;23;20013;-63
2023/05/27 16:02:05;;;;;;;23.50;6.63;;;18.00;72.50;;;;;;6188117;23;20021;-65
2023/05/27 16:04:32;;;;;;;29.65;6.75;;;18.10;72.60;;;;;;6188605;23;20017;-63
2023/05/27 16:06:58;;;;;;;20.42;6.00;;;18.00;72.60;;;;;;6187678;23;20028;-63
2023/05/27 16:09:23;;;;;;;22.10;6.43;;;18.10;72.40;;;;;;6187706;23;20052;-64
2023/05/27 16:11:50;;;;;;;23.88;5.85;;;18.00;72.20;;;;;;6188033;23;20021;-64
2023/05/27 16:14:16;;;;;;;28.15;7.25;;;18.10;72.30;;;;;;6188946;23;20017;-63
2023/05/27 16:16:42;;;;;;;32.45;7.57;;;18.10;72.20;;;;;;6188096;23;20412;-64
2023/05/27 16:19:07;;;;;;;37.10;8.18;;;18.10;72.10;;;;;;6187843;23;20028;-64
2023/05/27 16:21:33;;;;;;;36.75;7.25;;;18.10;72.20;;;;;;6187932;23;20013;-64
2023/05/27 16:23:59;;;;;;;28.00;6.30;;;18.20;72.20;;;;;;6187998;23;20143;-63
2023/05/27 16:26:25;;;;;;;34.47;8.23;;;18.20;71.80;;;;;;6187519;23;20032;-64
2023/05/27 16:28:51;;;;;;;33.47;6.72;;;18.20;71.60;;;;;;6188090;23;20013;-64
2023/05/27 16:31:17;;;;;;;30.08;6.50;;;18.20;71.50;;;;;;6187774;23;20325;-64
2023/05/27 16:33:42;;;;;;;36.40;7.65;;;18.20;71.60;;;;;;6187917;23;20083;-64
2023/05/27 16:36:08;;;;;;;27.58;6.78;;;18.20;71.50;;;;;;6187648;23;20016;-64
2023/05/27 16:38:34;;;;;;;30.30;6.70;;;18.20;71.50;;;;;;6187504;23;20021;-63
2023/05/27 16:40:59;;;;;;;28.42;7.13;;;18.20;71.50;;;;;;6186873;23;20457;-64
2023/05/27 16:43:25;;;;;;;31.50;6.30;;;18.20;71.40;;;;;;6188772;23;20017;-65
2023/05/27 16:45:51;;;;;;;32.42;6.53;;;18.30;71.40;;;;;;6187670;23;20027;-64
2023/05/27 16:48:17;;;;;;;29.92;6.78;;;18.30;71.20;;;;;;6187288;23;20025;-64
2023/05/27 16:50:43;;;;;;;30.00;6.57;;;18.40;71.30;;;;;;6187066;23;20032;-65
2023/05/27 16:53:09;;;;;;;41.22;8.05;;;18.40;71.20;;;;;;6187229;23;20164;-64
2023/05/27 16:55:35;;;;;;;34.05;7.45;;;18.40;71.40;;;;;;6187121;23;20318;-64
2023/05/27 16:58:00;;;;;;;29.02;6.35;;;18.50;71.30;;;;;;6187058;23;20044;-64
2023/05/27 17:00:27;;;;;;;26.90;6.50;;;18.50;71.20;;;;;;6187648;23;20024;-64
2023/05/27 17:02:53;;;;;;;32.50;6.95;;;18.50;71.10;;;;;;6187198;23;20346;-64
2023/05/27 17:05:18;;;;;;;22.38;6.53;;;18.50;71.00;;;;;;6187397;23;20021;-64
2023/05/27 17:07:44;;;;;;;22.33;6.60;;;18.50;71.00;;;;;;6187718;23;20084;-64
2023/05/27 17:10:10;;;;;;;23.17;5.68;;;18.50;70.90;;;;;;6187806;23;20292;-64
2023/05/27 17:12:36;;;;;;;24.88;6.28;;;18.50;70.90;;;;;;6187697;23;20031;-64
2023/05/27 17:15:02;;;;;;;22.90;5.82;;;18.50;70.90;;;;;;6190257;23;20017;-64
2023/05/27 17:17:28;;;;;;;29.98;6.20;;;18.50;70.80;;;;;;6189729;23;20024;-64
2023/05/27 17:19:54;;;;;;;19.83;6.35;;;18.50;70.80;;;;;;6189774;23;20013;-64
2023/05/27 17:22:20;;;;;;;21.23;5.13;;;18.60;70.70;;;;;;6189838;23;20084;-64
2023/05/27 17:24:46;;;;;;;20.70;5.55;;;18.60;70.70;;;;;;6189494;23;20421;-64
2023/05/27 17:27:12;;;;;;;18.63;4.78;;;18.50;70.60;;;;;;6189521;23;20314;-64
2023/05/27 17:29:41;;;;;;;17.70;4.93;;;18.50;70.50;;;;;;6189731;23;20023;-64
2023/05/27 17:32:07;;;;;;;17.88;4.53;;;18.50;70.40;;;;;;6189566;23;20029;-64
2023/05/27 17:34:33;;;;;;;16.83;5.13;;;18.50;70.50;;;;;;6189108;23;20013;-64
2023/05/27 17:36:59;;;;;;;15.90;4.28;;;18.50;70.40;;;;;;6189362;23;20091;-64